createdAt,value
2023-03-22T00:02:14.699Z,95.83
2023-03-22T00:05:10.799Z,95.77
2023-03-22T00:08:00.969Z,96.19
2023-03-22T00:10:29.069Z,96.22
2023-03-22T00:12:55.774Z,96.24
2023-03-22T00:15:22.597Z,96.26
2023-03-22T00:17:52.331Z,96.41
2023-03-22T00:20:20.852Z,96.84
2023-03-22T00:22:47.363Z,97.23
2023-03-22T00:25:13.826Z,96.87
2023-03-22T00:27:40.397Z,96.92
2023-03-22T00:30:08.051Z,96.96
2023-03-22T00:32:36.016Z,97.67
2023-03-22T00:35:03.937Z,97.12
2023-03-22T00:37:34.291Z,97.54
2023-03-22T00:40:01.281Z,97.93
2023-03-22T00:42:28.457Z,97.01
2023-03-22T00:44:54.877Z,97.19
2023-03-22T00:47:21.377Z,96.80
2023-03-22T00:49:49.351Z,96.91
2023-03-22T00:52:15.810Z,97.16
2023-03-22T00:54:42.289Z,96.99
2023-03-22T00:57:08.728Z,97.03
2023-03-22T00:59:38.587Z,97.01
2023-03-22T01:02:05.811Z,97.65
2023-03-22T01:04:35.475Z,97.24
2023-03-22T01:07:05.618Z,97.24
2023-03-22T01:09:33.762Z,97.52
2023-03-22T01:12:01.808Z,97.23
2023-03-22T01:14:28.646Z,97.51
2023-03-22T01:16:57.279Z,97.62
2023-03-22T01:19:24.605Z,97.28
2023-03-22T01:21:51.029Z,97.08
2023-03-22T01:24:17.408Z,97.16
2023-03-22T01:26:43.781Z,96.65
2023-03-22T01:29:10.399Z,96.56
2023-03-22T01:31:36.990Z,96.94
2023-03-22T01:34:03.900Z,96.88
2023-03-22T01:36:30.563Z,96.59
2023-03-22T01:38:57.040Z,96.66
2023-03-22T01:41:23.562Z,96.41
2023-03-22T01:44:09.282Z,96.18
2023-03-22T01:46:36.557Z,96.62
2023-03-22T01:49:05.035Z,96.11
2023-03-22T01:51:32.043Z,96.32
2023-03-22T01:54:04.035Z,96.35
2023-03-22T01:56:34.514Z,96.01
2023-03-22T01:59:01.616Z,96.43
2023-03-22T02:01:30.226Z,96.36
2023-03-22T02:04:08.192Z,96.44
2023-03-22T02:06:38.293Z,96.85
2023-03-22T02:09:11.089Z,96.53
2023-03-22T02:11:42.810Z,96.86
2023-03-22T02:14:12.259Z,96.56
2023-03-22T02:16:50.826Z,97.46
2023-03-22T02:19:29.255Z,96.92
2023-03-22T02:22:01.490Z,97.19
2023-03-22T02:24:45.750Z,97.26
2023-03-22T02:27:40.394Z,97.47
2023-03-22T02:30:31.538Z,98.19
2023-03-22T02:33:16.402Z,97.81
2023-03-22T02:36:16.739Z,97.82
2023-03-22T02:39:01.309Z,98.80
2023-03-22T02:41:40.295Z,99.21
2023-03-22T02:44:15.839Z,99.58
2023-03-22T02:47:05.052Z,99.83
2023-03-22T02:49:37.720Z,99.73
2023-03-22T02:52:07.205Z,100.00
2023-03-22T02:54:44.582Z,100.00
2023-03-22T02:57:28.390Z,100.00
2023-03-22T02:59:56.903Z,100.00
2023-03-22T03:02:26.685Z,100.00
2023-03-22T03:04:54.122Z,100.00
2023-03-22T03:07:25.554Z,100.00
2023-03-22T03:09:52.656Z,100.00
2023-03-22T03:12:23.220Z,100.00
2023-03-22T03:14:49.659Z,100.00
2023-03-22T03:17:34.089Z,100.00
2023-03-22T03:20:31.201Z,100.00
2023-03-22T03:23:35.222Z,100.00
2023-03-22T03:26:23.029Z,100.00
2023-03-22T03:28:52.502Z,100.00
2023-03-22T03:31:31.505Z,100.00
2023-03-22T03:34:17.058Z,100.00
2023-03-22T03:36:50.993Z,100.00
2023-03-22T03:39:19.994Z,100.00
2023-03-22T03:41:50.228Z,100.00
2023-03-22T03:44:17.814Z,100.00
2023-03-22T03:46:45.831Z,100.00
2023-03-22T03:49:14.107Z,100.00
2023-03-22T03:51:49.825Z,100.00
2023-03-22T03:54:16.366Z,100.00
2023-03-22T03:56:42.834Z,100.00
2023-03-22T03:59:09.301Z,100.00
2023-03-22T04:01:36.177Z,100.00
2023-03-22T04:04:02.639Z,100.00
2023-03-22T04:06:29.065Z,100.00
2023-03-22T04:08:56.543Z,100.00
2023-03-22T04:11:23.039Z,100.00
2023-03-22T04:13:49.456Z,100.00
2023-03-22T04:16:16.068Z,100.00
2023-03-22T04:18:42.613Z,100.00
2023-03-22T04:21:09.097Z,100.00
2023-03-22T04:23:35.608Z,100.00
2023-03-22T04:26:02.269Z,100.00
2023-03-22T04:28:28.840Z,100.00
2023-03-22T04:30:57.800Z,100.00
2023-03-22T04:33:24.281Z,100.00
2023-03-22T04:35:56.657Z,100.00
2023-03-22T04:38:25.208Z,100.00
2023-03-22T04:40:51.756Z,100.00
2023-03-22T04:43:18.945Z,100.00
2023-03-22T04:45:46.177Z,100.00
2023-03-22T04:48:12.678Z,100.00
2023-03-22T04:50:40.371Z,100.00
2023-03-22T04:53:08.102Z,100.00
2023-03-22T04:55:34.504Z,100.00
2023-03-22T04:58:01.014Z,100.00
2023-03-22T05:00:30.045Z,100.00
2023-03-22T05:02:57.296Z,100.00
2023-03-22T05:05:24.011Z,100.00
2023-03-22T05:07:50.394Z,100.00
2023-03-22T05:10:16.871Z,100.00
2023-03-22T05:12:43.241Z,100.00
2023-03-22T05:15:09.870Z,100.00
2023-03-22T05:17:36.260Z,100.00
2023-03-22T05:20:09.259Z,100.00
2023-03-22T05:22:40.455Z,100.00
2023-03-22T05:25:10.248Z,100.00
2023-03-22T05:27:38.996Z,100.00
2023-03-22T05:30:06.543Z,100.00
2023-03-22T05:32:33.013Z,100.00
2023-03-22T05:35:04.697Z,100.00
2023-03-22T05:37:31.619Z,100.00
2023-03-22T05:39:58.167Z,100.00
2023-03-22T05:42:24.591Z,100.00
2023-03-22T05:44:51.312Z,100.00
2023-03-22T05:47:17.729Z,100.00
2023-03-22T05:49:44.192Z,100.00
2023-03-22T05:52:10.969Z,100.00
2023-03-22T05:54:37.336Z,100.00
2023-03-22T05:57:03.809Z,100.00
2023-03-22T05:59:30.291Z,100.00
2023-03-22T06:01:56.694Z,100.00
2023-03-22T06:04:23.281Z,100.00
2023-03-22T06:06:50.393Z,100.00
2023-03-22T06:09:18.076Z,100.00
2023-03-22T06:11:44.788Z,100.00
2023-03-22T06:14:11.512Z,100.00
2023-03-22T06:16:38.056Z,100.00
2023-03-22T06:19:04.612Z,100.00
2023-03-22T06:21:31.135Z,100.00
2023-03-22T06:23:57.689Z,100.00
2023-03-22T06:26:24.187Z,100.00
2023-03-22T06:28:50.974Z,100.00
2023-03-22T06:31:17.522Z,100.00
2023-03-22T06:33:45.415Z,100.00
2023-03-22T06:36:11.894Z,99.98
2023-03-22T06:38:38.388Z,99.47
2023-03-22T06:41:05.279Z,98.26
2023-03-22T06:43:31.845Z,97.17
2023-03-22T06:45:58.396Z,97.17
2023-03-22T06:48:25.030Z,96.67
2023-03-22T06:50:51.608Z,96.62
2023-03-22T06:53:18.209Z,96.21
2023-03-22T06:55:44.622Z,96.15
2023-03-22T06:58:11.259Z,96.24
2023-03-22T07:00:39.018Z,95.79
2023-03-22T07:03:05.792Z,95.61
2023-03-22T07:05:32.379Z,94.96
2023-03-22T07:07:58.812Z,95.21
2023-03-22T07:10:25.488Z,94.65
2023-03-22T07:12:51.973Z,94.59
2023-03-22T07:15:20.021Z,94.51
2023-03-22T07:17:46.386Z,94.43
2023-03-22T07:20:12.971Z,94.39
2023-03-22T07:22:39.521Z,93.75
2023-03-22T07:25:06.364Z,93.72
2023-03-22T07:27:32.805Z,93.88
2023-03-22T07:29:59.278Z,93.77
2023-03-22T07:32:25.977Z,92.96
2023-03-22T07:34:52.486Z,92.58
2023-03-22T07:37:18.932Z,92.44
2023-03-22T07:39:45.460Z,92.24
2023-03-22T07:42:12.094Z,91.95
2023-03-22T07:44:38.548Z,91.44
2023-03-22T07:47:05.359Z,91.16
2023-03-22T07:49:32.409Z,90.83
2023-03-22T07:51:58.939Z,90.40
2023-03-22T07:54:33.326Z,90.15
2023-03-22T07:57:01.559Z,90.22
2023-03-22T07:59:28.389Z,89.70
2023-03-22T08:01:57.366Z,89.59
2023-03-22T08:04:23.852Z,88.83
2023-03-22T08:06:51.285Z,88.49
2023-03-22T08:09:18.331Z,87.95
2023-03-22T08:11:45.821Z,87.87
2023-03-22T08:14:12.257Z,86.85
2023-03-22T08:16:38.866Z,87.15
2023-03-22T08:19:06.016Z,86.71
2023-03-22T08:21:32.606Z,85.93
2023-03-22T08:23:59.135Z,86.64
2023-03-22T08:26:26.176Z,86.52
2023-03-22T08:28:52.766Z,86.74
2023-03-22T08:31:20.121Z,86.20
2023-03-22T08:33:47.074Z,85.83
2023-03-22T08:36:16.648Z,86.33
2023-03-22T08:38:44.817Z,85.86
2023-03-22T08:41:12.756Z,86.22
2023-03-22T08:43:39.347Z,86.03
2023-03-22T08:46:06.219Z,85.41
2023-03-22T08:48:32.808Z,85.49
2023-03-22T08:51:01.076Z,83.67
2023-03-22T08:53:28.009Z,83.72
2023-03-22T08:55:57.946Z,83.64
2023-03-22T08:58:24.865Z,83.05
2023-03-22T09:00:51.596Z,82.61
2023-03-22T09:03:18.128Z,82.93
2023-03-22T09:05:44.586Z,83.64
2023-03-22T09:08:18.661Z,83.92
2023-03-22T09:10:52.602Z,83.96
2023-03-22T09:13:20.016Z,83.38
2023-03-22T09:15:47.125Z,82.72
2023-03-22T09:18:16.521Z,83.01
2023-03-22T09:20:44.612Z,83.39
2023-03-22T09:23:11.846Z,82.96
2023-03-22T09:25:38.746Z,83.29
2023-03-22T09:28:11.094Z,84.51
2023-03-22T09:30:38.371Z,84.52
2023-03-22T09:33:12.030Z,84.16
2023-03-22T09:35:43.182Z,84.79
2023-03-22T09:38:10.534Z,85.63
2023-03-22T09:40:43.522Z,86.81
2023-03-22T09:43:13.606Z,87.80
2023-03-22T09:45:48.281Z,88.08
2023-03-22T09:48:21.655Z,89.90
2023-03-22T09:50:51.490Z,91.36
2023-03-22T09:53:18.459Z,92.87
2023-03-22T09:56:07.124Z,93.07
2023-03-22T09:58:39.598Z,94.31
2023-03-22T10:01:35.673Z,94.68
2023-03-22T10:04:26.142Z,94.44
2023-03-22T10:07:16.340Z,95.04
2023-03-22T10:10:12.603Z,95.59
2023-03-22T10:13:07.751Z,96.37
2023-03-22T10:15:41.983Z,96.21
2023-03-22T10:18:16.362Z,95.60
2023-03-22T10:20:57.287Z,96.42
2023-03-22T10:23:35.738Z,96.98
2023-03-22T10:26:04.465Z,96.38
2023-03-22T10:28:39.154Z,96.45
2023-03-22T10:31:06.978Z,96.71
2023-03-22T10:33:50.532Z,96.28
2023-03-22T10:36:20.862Z,97.23
2023-03-22T10:38:54.544Z,97.16
2023-03-22T10:41:25.582Z,97.20
2023-03-22T10:44:00.512Z,96.74
2023-03-22T10:46:34.116Z,97.42
2023-03-22T10:49:02.412Z,97.08
2023-03-22T10:51:47.790Z,98.36
2023-03-22T10:54:17.313Z,98.01
2023-03-22T10:56:45.134Z,97.51
2023-03-22T10:59:51.388Z,97.08
2023-03-22T11:02:29.664Z,98.20
2023-03-22T11:05:03.838Z,97.15
2023-03-22T11:07:36.887Z,97.40
2023-03-22T11:10:09.920Z,97.43
2023-03-22T11:12:45.636Z,97.88
2023-03-22T11:15:30.777Z,97.09
2023-03-22T11:18:07.005Z,96.91
2023-03-22T11:20:35.719Z,96.03
2023-03-22T11:23:07.223Z,95.88
2023-03-22T11:25:39.062Z,95.68
2023-03-22T11:28:23.843Z,95.84
2023-03-22T11:31:07.734Z,95.37
2023-03-22T11:33:37.536Z,94.87
2023-03-22T11:36:18.140Z,94.99
2023-03-22T11:38:47.428Z,95.24
2023-03-22T11:41:23.884Z,95.21
2023-03-22T11:44:03.759Z,95.51
2023-03-22T11:46:32.213Z,94.97
2023-03-22T11:49:05.198Z,94.97
2023-03-22T11:51:37.176Z,94.92
2023-03-22T11:54:11.177Z,94.54
2023-03-22T11:56:43.548Z,94.49
2023-03-22T11:59:40.582Z,94.32
2023-03-22T12:02:23.933Z,94.68
2023-03-22T12:05:00.770Z,94.94
2023-03-22T12:07:32.572Z,94.70
2023-03-22T12:10:21.868Z,94.35
2023-03-22T12:13:00.870Z,94.16
2023-03-22T12:15:41.123Z,94.57
2023-03-22T12:18:23.206Z,93.83
2023-03-22T12:20:56.897Z,94.61
2023-03-22T12:23:30.447Z,94.37
2023-03-22T12:26:09.018Z,94.22
2023-03-22T12:28:56.751Z,94.30
2023-03-22T12:31:31.946Z,93.73
2023-03-22T12:34:03.987Z,92.82
2023-03-22T12:36:41.566Z,93.54
2023-03-22T12:39:30.338Z,93.31
2023-03-22T12:42:03.171Z,93.32
2023-03-22T12:44:38.282Z,93.26
2023-03-22T12:47:19.079Z,93.93
2023-03-22T12:50:06.265Z,93.00
2023-03-22T12:52:44.777Z,93.62
2023-03-22T12:55:23.454Z,93.67
2023-03-22T12:57:54.941Z,93.38
2023-03-22T13:00:48.568Z,93.63
2023-03-22T13:03:21.890Z,92.46
2023-03-22T13:05:50.801Z,92.95
2023-03-22T13:08:22.388Z,92.81
2023-03-22T13:11:01.726Z,92.75
2023-03-22T13:13:28.218Z,93.08
2023-03-22T13:16:09.021Z,93.28
2023-03-22T13:18:35.548Z,94.03
2023-03-22T13:21:12.557Z,93.03
2023-03-22T13:24:10.127Z,93.33
2023-03-22T13:26:48.218Z,93.65
2023-03-22T13:29:22.052Z,93.17
2023-03-22T13:31:51.507Z,93.27
2023-03-22T13:34:31.522Z,93.19
2023-03-22T13:36:59.431Z,92.97
2023-03-22T13:39:34.735Z,93.38
2023-03-22T13:42:38.036Z,93.74
2023-03-22T13:45:08.996Z,94.12
2023-03-22T13:47:45.448Z,94.76
2023-03-22T13:50:23.570Z,94.82
2023-03-22T13:52:59.931Z,95.03
2023-03-22T13:56:03.912Z,95.44
2023-03-22T13:58:36.571Z,96.24
2023-03-22T14:01:08.141Z,95.54
2023-03-22T14:03:42.922Z,96.24
2023-03-22T14:06:29.023Z,96.82
2023-03-22T14:09:06.140Z,98.05
2023-03-22T14:12:00.166Z,97.70
2023-03-22T14:14:32.834Z,97.44
2023-03-22T14:17:21.119Z,97.84
2023-03-22T14:19:49.688Z,97.48
